Time;durP1;ratioP1;P1;durP2;ratioP2;P2;SDS_P1;SDS_P2;PMS_P1;PMS_P2;Temp;Humidity;BMP_temperature;BMP_pressure;BME280_temperature;BME280_humidity;BME280_pressure;Samples;Min_cycle;Max_cycle;Signal;HPM_P1;HPM_P2
2023/07/17 00:00:51;;;;;;;5.18;1.90;;;24.10;1.00;;;;;;4880033;29;20064;-40
2023/07/17 00:03:18;;;;;;;7.78;1.80;;;24.10;1.00;;;;;;4879672;29;20059;-42
2023/07/17 00:05:46;;;;;;;5.97;2.08;;;24.10;1.00;;;;;;4879934;29;20097;-42
2023/07/17 00:08:12;;;;;;;10.25;2.53;;;24.10;1.00;;;;;;4879858;29;20051;-40
2023/07/17 00:10:40;;;;;;;4.53;1.60;;;24.10;1.00;;;;;;4880023;29;20417;-40
2023/07/17 00:13:07;;;;;;;6.18;1.27;;;24.10;1.00;;;;;;4863325;29;20405;-42
2023/07/17 00:15:34;;;;;;;5.68;1.35;;;24.10;1.00;;;;;;4861150;29;20069;-40
2023/07/17 00:18:01;;;;;;;6.85;1.98;;;24.10;1.00;;;;;;4861251;29;20046;-41
2023/07/17 00:20:28;;;;;;;8.02;2.47;;;24.00;1.00;;;;;;4861290;29;20121;-40
2023/07/17 00:22:55;;;;;;;5.72;2.08;;;24.00;1.00;;;;;;4860870;29;20057;-42
2023/07/17 00:25:22;;;;;;;4.88;1.20;;;24.00;1.00;;;;;;4879366;29;20037;-44
2023/07/17 00:27:48;;;;;;;8.68;1.67;;;24.00;1.00;;;;;;4879644;29;20049;-41
2023/07/17 00:30:16;;;;;;;10.57;2.53;;;24.00;1.00;;;;;;4879484;29;20043;-44
2023/07/17 00:32:42;;;;;;;7.30;1.63;;;24.00;1.00;;;;;;4879287;29;20036;-41
2023/07/17 00:35:09;;;;;;;6.43;2.35;;;24.00;1.00;;;;;;4878417;29;20405;-42
2023/07/17 00:37:36;;;;;;;6.25;1.67;;;24.00;1.00;;;;;;4844408;29;20046;-43
2023/07/17 00:40:09;;;;;;;4.20;1.42;;;24.00;1.00;;;;;;4844394;29;20041;-40
2023/07/17 00:42:36;;;;;;;3.92;1.35;;;24.00;1.00;;;;;;4872572;29;20112;-41
2023/07/17 00:45:05;;;;;;;6.13;1.65;;;24.00;1.00;;;;;;4878095;29;20390;-43
2023/07/17 00:47:32;;;;;;;5.53;1.67;;;24.00;1.00;;;;;;4879260;29;20069;-44
2023/07/17 00:50:04;;;;;;;5.80;1.92;;;24.00;1.00;;;;;;4862523;29;20045;-40
2023/07/17 00:52:33;;;;;;;5.45;1.60;;;24.00;1.00;;;;;;4877773;29;20124;-42
2023/07/17 00:55:00;;;;;;;9.43;2.60;;;24.00;1.00;;;;;;4879183;29;20076;-41
2023/07/17 00:57:27;;;;;;;3.05;1.90;;;24.00;1.00;;;;;;4879300;29;20565;-41
2023/07/17 00:59:54;;;;;;;7.72;1.80;;;24.00;1.00;;;;;;4862141;29;20416;-41
2023/07/17 01:02:22;;;;;;;10.00;1.90;;;24.00;1.00;;;;;;4861968;29;20053;-41
2023/07/17 01:04:51;;;;;;;5.32;2.10;;;24.00;1.00;;;;;;4862453;29;20105;-41
2023/07/17 01:07:17;;;;;;;7.38;1.92;;;24.00;1.00;;;;;;4878734;29;20076;-40
2023/07/17 01:09:44;;;;;;;5.82;1.35;;;24.00;1.00;;;;;;4862154;29;20037;-43
2023/07/17 01:12:11;;;;;;;9.13;2.65;;;24.00;1.00;;;;;;4877153;29;20048;-42
2023/07/17 01:14:39;;;;;;;7.00;1.70;;;24.00;1.00;;;;;;4878888;29;20029;-41
2023/07/17 01:17:06;;;;;;;8.27;2.58;;;23.90;1.00;;;;;;4878688;29;20085;-41
2023/07/17 01:19:34;;;;;;;6.00;2.15;;;23.90;1.00;;;;;;4878746;29;20089;-40
2023/07/17 01:22:09;;;;;;;5.32;1.88;;;24.00;1.00;;;;;;4861603;29;20468;-40
2023/07/17 01:24:36;;;;;;;4.70;2.10;;;23.90;1.00;;;;;;4878979;29;20041;-40
2023/07/17 01:27:03;;;;;;;8.75;2.70;;;23.90;1.00;;;;;;4861910;29;20115;-41
2023/07/17 01:29:30;;;;;;;5.60;2.30;;;23.90;1.00;;;;;;4877312;29;20051;-44
2023/07/17 01:31:57;;;;;;;7.10;2.40;;;23.90;1.00;;;;;;4878009;29;20045;-43
2023/07/17 01:34:24;;;;;;;6.40;2.80;;;23.90;1.00;;;;;;4877308;29;20041;-42
2023/07/17 01:36:51;;;;;;;5.90;2.38;;;23.90;1.00;;;;;;4861932;29;20064;-40
2023/07/17 01:39:18;;;;;;;4.65;1.45;;;23.90;1.00;;;;;;4861760;29;20078;-41
2023/07/17 01:41:45;;;;;;;6.78;2.28;;;23.90;1.00;;;;;;4877111;29;20068;-43
2023/07/17 01:44:12;;;;;;;7.65;2.13;;;23.90;1.00;;;;;;4861362;29;20493;-41
2023/07/17 01:46:41;;;;;;;5.82;1.63;;;23.90;1.00;;;;;;4878375;29;20040;-40
2023/07/17 01:49:08;;;;;;;7.35;2.20;;;23.90;1.00;;;;;;4861363;29;20080;-43
2023/07/17 01:51:35;;;;;;;6.55;1.60;;;23.90;1.00;;;;;;4876900;29;20116;-41
2023/07/17 01:54:02;;;;;;;7.40;1.73;;;23.90;1.00;;;;;;4877884;29;20052;-43
2023/07/17 01:56:29;;;;;;;7.18;2.05;;;23.90;1.00;;;;;;4876929;29;20458;-40
2023/07/17 01:58:56;;;;;;;7.10;2.22;;;23.90;1.00;;;;;;4861506;29;20045;-41
2023/07/17 02:01:23;;;;;;;6.45;2.08;;;23.80;1.00;;;;;;4861647;29;20109;-41
2023/07/17 02:03:51;;;;;;;4.45;1.77;;;23.90;1.00;;;;;;4861038;29;20076;-40
2023/07/17 02:06:18;;;;;;;5.53;2.13;;;23.90;1.00;;;;;;4876745;29;20053;-42
2023/07/17 02:08:45;;;;;;;9.75;2.70;;;23.90;1.00;;;;;;4877864;29;20064;-42
2023/07/17 02:11:12;;;;;;;7.68;2.75;;;23.80;1.00;;;;;;4877397;29;20414;-41
2023/07/17 02:13:39;;;;;;;6.57;1.83;;;23.80;1.00;;;;;;4877730;29;20037;-41
2023/07/17 02:16:05;;;;;;;5.70;2.67;;;23.80;1.00;;;;;;4861228;29;20041;-41
2023/07/17 02:18:32;;;;;;;9.48;2.08;;;23.80;1.00;;;;;;4877775;29;20037;-41
2023/07/17 02:20:59;;;;;;;9.55;2.20;;;23.80;1.00;;;;;;4877932;29;20040;-43
2023/07/17 02:23:26;;;;;;;8.57;2.60;;;23.80;1.00;;;;;;4877656;29;20425;-40
2023/07/17 02:25:53;;;;;;;5.78;2.38;;;23.80;1.00;;;;;;4861194;29;20073;-42
2023/07/17 02:28:20;;;;;;;8.68;2.75;;;23.80;1.00;;;;;;4877797;29;20382;-41
2023/07/17 02:30:47;;;;;;;6.95;2.35;;;23.80;1.00;;;;;;4877668;29;20378;-41
2023/07/17 02:33:14;;;;;;;6.60;1.67;;;23.80;1.00;;;;;;4877442;29;20045;-41
2023/07/17 02:35:41;;;;;;;8.65;2.47;;;23.80;1.00;;;;;;4874171;29;20705;-41
2023/07/17 02:38:07;;;;;;;5.43;1.48;;;23.80;1.00;;;;;;4857484;29;20469;-41
2023/07/17 02:40:34;;;;;;;11.48;4.07;;;23.80;1.00;;;;;;4876480;29;20052;-40
2023/07/17 02:43:01;;;;;;;5.97;1.85;;;23.80;1.00;;;;;;4877586;29;20229;-41
2023/07/17 02:45:31;;;;;;;5.90;1.88;;;23.80;1.00;;;;;;4860770;29;20057;-41
2023/07/17 02:47:58;;;;;;;8.35;3.42;;;23.80;1.00;;;;;;4877811;29;20041;-40
2023/07/17 02:50:25;;;;;;;5.97;2.03;;;23.80;1.00;;;;;;4877547;29;20374;-41
2023/07/17 02:52:52;;;;;;;11.93;1.90;;;23.70;1.00;;;;;;4860576;29;20045;-41
2023/07/17 02:55:18;;;;;;;8.10;2.15;;;23.70;1.00;;;;;;4877584;29;20051;-41
2023/07/17 02:57:46;;;;;;;5.60;1.70;;;23.70;1.00;;;;;;4861010;29;20045;-41
2023/07/17 03:00:15;;;;;;;8.32;2.10;;;23.70;1.00;;;;;;4876213;29;20148;-41
2023/07/17 03:02:43;;;;;;;5.40;1.67;;;23.70;1.00;;;;;;4860686;29;20469;-41
2023/07/17 03:05:11;;;;;;;7.70;2.35;;;23.70;1.00;;;;;;4861007;29;20056;-40
2023/07/17 03:07:41;;;;;;;6.10;1.83;;;23.70;1.00;;;;;;4876536;29;20041;-40
2023/07/17 03:10:08;;;;;;;7.50;2.70;;;23.70;1.00;;;;;;4845632;29;20089;-40
2023/07/17 03:12:36;;;;;;;7.53;2.00;;;23.70;1.00;;;;;;4877020;29;20049;-41
2023/07/17 03:15:05;;;;;;;6.15;1.92;;;23.70;1.00;;;;;;4860695;29;20406;-41
2023/07/17 03:17:32;;;;;;;6.55;2.33;;;23.70;1.00;;;;;;4876044;29;20406;-40
2023/07/17 03:20:08;;;;;;;5.32;1.88;;;23.70;1.00;;;;;;4877507;29;20056;-41
2023/07/17 03:22:37;;;;;;;5.60;1.98;;;23.70;1.00;;;;;;4860200;29;20053;-41
2023/07/17 03:25:05;;;;;;;7.18;2.33;;;23.70;1.00;;;;;;4863738;29;20080;-41
2023/07/17 03:27:33;;;;;;;4.45;1.70;;;23.70;1.00;;;;;;4880791;29;20494;-41
2023/07/17 03:30:01;;;;;;;6.95;2.05;;;23.70;1.00;;;;;;4880521;29;20076;-41
2023/07/17 03:32:36;;;;;;;9.05;2.15;;;23.60;1.00;;;;;;4863499;29;20049;-41
2023/07/17 03:35:03;;;;;;;5.25;1.92;;;23.70;1.00;;;;;;4880641;29;20037;-43
2023/07/17 03:37:30;;;;;;;6.18;2.08;;;23.70;1.00;;;;;;4863795;29;20045;-44
2023/07/17 03:39:57;;;;;;;6.75;2.42;;;23.60;1.00;;;;;;4863969;29;20064;-41
2023/07/17 03:42:24;;;;;;;4.85;2.08;;;23.60;1.00;;;;;;4863354;29;20465;-40
2023/07/17 03:44:51;;;;;;;6.53;2.10;;;23.60;1.00;;;;;;4879139;29;20545;-41
2023/07/17 03:47:18;;;;;;;7.85;2.65;;;23.60;1.00;;;;;;4863456;29;20045;-40
2023/07/17 03:49:46;;;;;;;8.43;2.25;;;23.60;1.00;;;;;;4878881;29;20448;-42
2023/07/17 03:52:13;;;;;;;6.00;2.50;;;23.60;1.00;;;;;;4879820;29;20047;-41
2023/07/17 03:54:40;;;;;;;9.90;2.80;;;23.60;1.00;;;;;;4861798;29;20450;-41
2023/07/17 03:57:07;;;;;;;6.45;2.05;;;23.60;1.00;;;;;;4845311;29;20033;-40
2023/07/17 03:59:53;;;;;;;8.35;2.13;;;23.60;1.00;;;;;;4844312;29;20081;-40
2023/07/17 04:02:25;;;;;;;8.40;2.63;;;23.60;1.00;;;;;;4860507;29;20064;-42
2023/07/17 04:04:52;;;;;;;6.30;2.00;;;23.60;1.00;;;;;;4863092;29;20097;-40
2023/07/17 04:07:22;;;;;;;7.97;2.15;;;23.60;1.00;;;;;;4858705;29;20540;-42
2023/07/17 04:09:48;;;;;;;8.77;2.05;;;23.60;1.00;;;;;;4859552;29;20465;-41
2023/07/17 04:12:16;;;;;;;5.82;1.75;;;23.60;1.00;;;;;;4844043;29;20068;-40
2023/07/17 04:14:44;;;;;;;8.60;2.60;;;23.60;1.00;;;;;;4875401;29;20045;-40
2023/07/17 04:17:11;;;;;;;4.82;2.00;;;23.50;1.00;;;;;;4844668;29;20049;-41
2023/07/17 04:19:38;;;;;;;11.05;2.50;;;23.60;1.00;;;;;;4844812;29;20061;-41
2023/07/17 04:22:05;;;;;;;15.90;3.50;;;23.50;1.00;;;;;;4844476;29;20088;-41
2023/07/17 04:24:34;;;;;;;13.68;3.33;;;23.50;1.00;;;;;;4844259;29;20057;-41
2023/07/17 04:27:01;;;;;;;6.97;2.13;;;23.40;1.00;;;;;;4844441;29;20072;-41
2023/07/17 04:29:28;;;;;;;10.45;2.78;;;23.40;1.00;;;;;;4860437;29;20048;-40
2023/07/17 04:31:59;;;;;;;8.20;2.08;;;23.40;1.00;;;;;;4862358;29;20148;-40
2023/07/17 04:34:29;;;;;;;11.45;2.63;;;23.50;1.00;;;;;;4879010;29;20044;-40
2023/07/17 04:36:56;;;;;;;8.15;2.67;;;23.40;1.00;;;;;;4862696;29;20053;-40
2023/07/17 04:39:24;;;;;;;6.57;2.45;;;23.40;1.00;;;;;;4878350;29;20554;-40
2023/07/17 04:41:52;;;;;;;9.85;2.33;;;23.40;1.00;;;;;;4862586;29;20416;-41
2023/07/17 04:44:19;;;;;;;8.15;1.90;;;23.40;1.00;;;;;;4862153;29;20113;-40
2023/07/17 04:46:46;;;;;;;7.18;2.30;;;23.40;1.00;;;;;;4863585;29;20049;-40
2023/07/17 04:49:13;;;;;;;6.57;2.78;;;23.40;1.00;;;;;;4842623;29;20417;-44
2023/07/17 04:51:41;;;;;;;9.88;2.65;;;23.40;1.00;;;;;;4867554;29;20041;-40
2023/07/17 04:54:08;;;;;;;10.63;2.47;;;23.40;1.00;;;;;;4843476;29;20046;-41
2023/07/17 04:56:35;;;;;;;7.85;1.90;;;23.40;1.00;;;;;;4860434;29;20053;-40
2023/07/17 04:59:05;;;;;;;6.32;1.98;;;23.40;1.00;;;;;;4878143;29;20097;-40
2023/07/17 05:01:33;;;;;;;7.30;1.88;;;23.40;1.00;;;;;;4878013;29;20141;-40
2023/07/17 05:03:59;;;;;;;6.53;1.92;;;23.40;1.00;;;;;;4862384;29;20132;-40
2023/07/17 05:06:27;;;;;;;8.82;2.22;;;23.40;1.00;;;;;;4878041;29;20072;-40
2023/07/17 05:08:55;;;;;;;7.28;1.63;;;23.40;1.00;;;;;;4862355;29;20048;-40
2023/07/17 05:11:23;;;;;;;15.18;2.20;;;23.40;1.00;;;;;;4877937;29;20045;-40
2023/07/17 05:13:51;;;;;;;4.78;1.50;;;23.40;1.00;;;;;;4862100;29;20051;-40
2023/07/17 05:16:18;;;;;;;6.80;2.13;;;23.40;1.00;;;;;;4878838;29;20041;-40
2023/07/17 05:18:45;;;;;;;5.32;1.63;;;23.40;1.00;;;;;;4867862;29;20199;-40
2023/07/17 05:21:12;;;;;;;5.80;2.17;;;23.40;1.00;;;;;;4843714;29;20434;-39
2023/07/17 05:23:39;;;;;;;7.63;3.20;;;23.40;1.00;;;;;;4860550;29;20057;-41
2023/07/17 05:26:07;;;;;;;5.30;1.90;;;23.40;1.00;;;;;;4862113;29;20602;-40
2023/07/17 05:28:35;;;;;;;6.10;1.70;;;23.30;1.00;;;;;;4878939;29;20041;-40
2023/07/17 05:31:04;;;;;;;5.18;2.10;;;23.30;1.00;;;;;;4862167;29;20033;-42
2023/07/17 05:33:31;;;;;;;4.25;1.35;;;23.30;1.00;;;;;;4861508;29;20052;-41
2023/07/17 05:35:58;;;;;;;6.68;2.80;;;23.30;1.00;;;;;;4861907;29;20044;-40
2023/07/17 05:38:27;;;;;;;5.72;1.75;;;23.30;1.00;;;;;;4861823;29;20076;-40
2023/07/17 05:40:58;;;;;;;7.65;2.30;;;23.30;1.00;;;;;;4858642;29;20149;-42
2023/07/17 05:43:25;;;;;;;6.63;2.10;;;23.30;1.00;;;;;;4874553;29;20049;-40
2023/07/17 05:46:03;;;;;;;6.25;2.65;;;23.30;1.00;;;;;;4861020;29;20047;-42
2023/07/17 05:48:30;;;;;;;4.55;2.05;;;23.30;1.00;;;;;;4877229;29;20056;-40
2023/07/17 05:50:56;;;;;;;6.80;2.10;;;23.30;1.00;;;;;;4878321;29;20064;-40
2023/07/17 05:53:24;;;;;;;5.93;2.05;;;23.30;1.00;;;;;;4861615;29;20041;-39
2023/07/17 05:55:52;;;;;;;4.97;1.88;;;23.30;1.00;;;;;;4862120;29;20072;-40
2023/07/17 05:58:19;;;;;;;7.00;2.10;;;23.30;1.00;;;;;;4862174;29;20049;-40
2023/07/17 06:00:46;;;;;;;4.43;1.45;;;23.30;1.00;;;;;;4861540;29;20109;-40
2023/07/17 06:03:13;;;;;;;8.82;1.58;;;23.30;1.00;;;;;;4861133;29;20052;-40
2023/07/17 06:05:40;;;;;;;4.85;1.23;;;23.30;1.00;;;;;;4876807;29;20048;-40
2023/07/17 06:08:08;;;;;;;3.20;1.45;;;23.30;1.00;;;;;;4878407;29;20128;-40
2023/07/17 06:10:36;;;;;;;5.43;2.13;;;23.30;1.00;;;;;;4876880;29;20049;-40
2023/07/17 06:13:03;;;;;;;6.68;2.60;;;23.30;1.00;;;;;;4876543;29;20366;-40
2023/07/17 06:15:30;;;;;;;6.85;1.50;;;23.30;1.00;;;;;;4877918;29;20128;-40
2023/07/17 06:17:56;;;;;;;8.52;1.75;;;23.30;1.00;;;;;;4878067;29;20494;-41
2023/07/17 06:20:25;;;;;;;3.75;1.48;;;23.30;1.00;;;;;;4877650;29;20113;-41
2023/07/17 06:22:51;;;;;;;3.05;1.58;;;23.30;1.00;;;;;;4877602;29;20343;-41
2023/07/17 06:25:19;;;;;;;6.32;1.75;;;23.30;1.00;;;;;;4878140;29;20049;-40
2023/07/17 06:27:46;;;;;;;3.67;1.50;;;23.30;1.00;;;;;;4877739;29;20075;-40
2023/07/17 06:30:13;;;;;;;7.10;2.00;;;23.40;1.00;;;;;;4877767;29;20049;-40
2023/07/17 06:32:40;;;;;;;3.03;1.73;;;23.30;1.00;;;;;;4877528;29;20055;-40
2023/07/17 06:35:07;;;;;;;2.25;1.23;;;23.30;1.00;;;;;;4877722;29;20055;-42
2023/07/17 06:37:34;;;;;;;4.75;1.60;;;23.40;1.00;;;;;;4877624;29;20044;-40
2023/07/17 06:40:03;;;;;;;4.90;1.60;;;23.40;1.00;;;;;;4877724;29;20072;-41
2023/07/17 06:42:31;;;;;;;4.13;1.42;;;23.40;1.00;;;;;;4877518;29;20097;-40
2023/07/17 06:44:58;;;;;;;4.07;1.40;;;23.40;1.00;;;;;;4877596;29;20072;-41
2023/07/17 06:47:28;;;;;;;7.50;1.90;;;23.40;1.00;;;;;;4877722;29;20049;-40
2023/07/17 06:50:04;;;;;;;6.22;1.63;;;23.40;1.00;;;;;;4877544;29;20446;-40
2023/07/17 06:52:30;;;;;;;5.70;2.33;;;23.40;1.00;;;;;;4877426;29;20482;-43
2023/07/17 06:54:57;;;;;;;3.58;1.73;;;23.40;1.00;;;;;;4877401;29;20073;-40
2023/07/17 06:57:30;;;;;;;4.45;2.08;;;23.40;1.00;;;;;;4878601;29;20120;-40
2023/07/17 06:59:57;;;;;;;3.20;1.60;;;23.40;1.00;;;;;;4881034;29;20077;-40
2023/07/17 07:02:24;;;;;;;5.63;2.08;;;23.40;1.00;;;;;;4880885;29;20088;-40
2023/07/17 07:04:51;;;;;;;2.38;1.40;;;23.40;1.00;;;;;;4881002;29;20117;-41
2023/07/17 07:07:18;;;;;;;4.55;1.83;;;23.40;1.00;;;;;;4881099;29;20051;-40
2023/07/17 07:09:46;;;;;;;4.82;2.17;;;23.40;1.00;;;;;;4880772;29;20465;-41
2023/07/17 07:12:13;;;;;;;3.55;2.03;;;23.40;1.00;;;;;;4880495;29;20073;-40
2023/07/17 07:14:40;;;;;;;4.68;1.80;;;23.40;1.00;;;;;;4880956;29;20413;-40
2023/07/17 07:17:08;;;;;;;7.68;2.08;;;23.40;1.00;;;;;;4880939;29;20044;-40
2023/07/17 07:19:35;;;;;;;5.28;1.60;;;23.40;1.00;;;;;;4880752;29;20049;-42
2023/07/17 07:22:02;;;;;;;5.60;1.73;;;23.40;1.00;;;;;;4880202;29;20072;-42
2023/07/17 07:24:29;;;;;;;3.83;1.42;;;23.40;1.00;;;;;;4880167;29;20481;-41
2023/07/17 07:26:56;;;;;;;4.30;1.88;;;23.40;1.00;;;;;;4880377;29;20048;-40
2023/07/17 07:29:22;;;;;;;3.95;1.75;;;23.40;1.00;;;;;;4880863;29;20417;-41
2023/07/17 07:31:49;;;;;;;11.07;1.98;;;23.50;1.00;;;;;;4880236;29;20059;-40
2023/07/17 07:34:16;;;;;;;4.45;1.30;;;23.40;1.00;;;;;;4880324;29;20401;-42
2023/07/17 07:36:43;;;;;;;3.38;1.30;;;23.40;1.00;;;;;;4879390;29;20561;-43
2023/07/17 07:39:10;;;;;;;6.78;1.40;;;23.40;1.00;;;;;;4880400;29;20037;-43
2023/07/17 07:41:37;;;;;;;3.78;1.70;;;23.50;1.00;;;;;;4880558;29;20049;-42
2023/07/17 07:44:04;;;;;;;4.55;1.52;;;23.40;1.00;;;;;;4880012;29;20458;-40
2023/07/17 07:46:31;;;;;;;6.55;1.92;;;23.50;1.00;;;;;;4880396;29;20148;-40
2023/07/17 07:48:58;;;;;;;3.85;1.33;;;23.40;1.00;;;;;;4880216;29;20152;-41
2023/07/17 07:51:25;;;;;;;4.63;1.70;;;23.50;1.00;;;;;;4874131;29;20097;-41
2023/07/17 07:53:52;;;;;;;5.85;1.75;;;23.50;1.00;;;;;;4861162;29;20053;-43
2023/07/17 07:56:19;;;;;;;3.35;1.83;;;23.40;1.00;;;;;;4861611;29;20486;-41
2023/07/17 07:58:47;;;;;;;6.03;1.98;;;23.40;1.00;;;;;;4861436;29;20125;-41
2023/07/17 08:01:14;;;;;;;3.88;1.10;;;23.50;1.00;;;;;;4873691;29;20569;-40
2023/07/17 08:03:40;;;;;;;3.13;1.48;;;23.40;1.00;;;;;;4879991;29;20136;-41
2023/07/17 08:06:08;;;;;;;5.40;2.13;;;23.40;1.00;;;;;;4865436;29;20056;-41
2023/07/17 08:08:34;;;;;;;5.35;1.48;;;23.40;1.00;;;;;;4879265;29;20110;-41
2023/07/17 08:11:01;;;;;;;6.55;1.95;;;23.40;1.00;;;;;;4879544;29;20052;-40
2023/07/17 08:13:29;;;;;;;6.68;1.33;;;23.40;1.00;;;;;;4879452;29;20088;-44
2023/07/17 08:15:56;;;;;;;2.35;1.05;;;23.50;1.00;;;;;;4879673;29;20037;-41
2023/07/17 08:18:23;;;;;;;3.25;1.55;;;23.40;1.00;;;;;;4879616;29;20095;-41
2023/07/17 08:20:50;;;;;;;5.43;1.85;;;23.50;1.00;;;;;;4879641;29;20049;-42
2023/07/17 08:23:25;;;;;;;3.95;1.50;;;23.50;1.00;;;;;;4879537;29;20072;-41
2023/07/17 08:25:52;;;;;;;4.78;1.60;;;23.40;1.00;;;;;;4879605;29;20112;-41
2023/07/17 08:28:19;;;;;;;1.85;1.20;;;23.40;1.00;;;;;;4879737;29;20458;-41
2023/07/17 08:30:50;;;;;;;4.00;1.45;;;23.40;1.00;;;;;;4879393;29;20091;-42
2023/07/17 08:33:18;;;;;;;2.88;1.70;;;23.50;1.00;;;;;;4879265;29;20049;-41
2023/07/17 08:35:44;;;;;;;4.20;1.70;;;23.40;1.00;;;;;;4878245;29;20120;-41
2023/07/17 08:38:11;;;;;;;4.15;1.52;;;23.40;1.00;;;;;;4879525;29;20080;-40
2023/07/17 08:40:39;;;;;;;6.55;1.77;;;23.40;1.00;;;;;;4879482;29;20041;-41
2023/07/17 08:43:07;;;;;;;4.15;1.38;;;23.40;1.00;;;;;;4879015;29;20076;-43
2023/07/17 08:45:36;;;;;;;5.10;2.42;;;23.50;1.00;;;;;;4879582;29;20071;-45
2023/07/17 08:48:04;;;;;;;6.65;1.98;;;23.50;1.00;;;;;;4879144;29;20131;-42
2023/07/17 08:50:31;;;;;;;3.38;1.40;;;23.50;1.00;;;;;;4879215;29;20069;-42
2023/07/17 08:52:58;;;;;;;4.53;1.50;;;23.50;1.00;;;;;;4879075;29;20488;-40
2023/07/17 08:55:29;;;;;;;4.15;1.38;;;23.50;1.00;;;;;;4879715;29;20056;-42
2023/07/17 08:57:59;;;;;;;3.15;1.30;;;23.40;1.00;;;;;;4879203;29;20096;-44
2023/07/17 09:00:28;;;;;;;5.82;1.70;;;23.50;1.00;;;;;;4879199;29;20128;-41
2023/07/17 09:02:56;;;;;;;4.68;1.20;;;23.50;1.00;;;;;;4878581;29;20049;-40
2023/07/17 09:05:23;;;;;;;6.50;1.92;;;23.50;1.00;;;;;;4878936;29;20045;-41
2023/07/17 09:07:50;;;;;;;8.30;1.92;;;23.50;1.00;;;;;;4879255;29;20105;-41
2023/07/17 09:10:22;;;;;;;3.47;1.80;;;23.50;1.00;;;;;;4878908;29;20382;-43
2023/07/17 09:12:51;;;;;;;3.50;1.75;;;23.50;1.00;;;;;;4878737;29;20052;-41
2023/07/17 09:15:19;;;;;;;4.95;1.83;;;23.50;1.00;;;;;;4879226;29;20041;-41
2023/07/17 09:17:46;;;;;;;3.33;1.58;;;23.50;1.00;;;;;;4878908;29;20048;-45
2023/07/17 09:20:16;;;;;;;3.58;1.50;;;23.50;1.00;;;;;;4863806;29;20120;-40
2023/07/17 09:22:43;;;;;;;5.95;1.67;;;23.50;1.00;;;;;;4878695;29;20041;-40
2023/07/17 09:25:12;;;;;;;2.60;1.33;;;23.50;1.00;;;;;;4878716;29;20041;-40
2023/07/17 09:27:43;;;;;;;4.00;1.75;;;23.50;1.00;;;;;;4878650;29;20043;-41
2023/07/17 09:30:12;;;;;;;3.03;1.35;;;23.50;1.00;;;;;;4878760;29;20101;-40
2023/07/17 09:32:40;;;;;;;5.38;1.60;;;23.50;1.00;;;;;;4878400;29;20393;-40
2023/07/17 09:35:08;;;;;;;3.25;1.23;;;23.50;1.00;;;;;;4878498;29;20045;-41
2023/07/17 09:37:36;;;;;;;4.32;1.35;;;23.50;1.00;;;;;;4878573;29;20041;-43
2023/07/17 09:40:13;;;;;;;4.03;1.70;;;23.50;1.00;;;;;;4878446;29;20401;-43
2023/07/17 09:42:59;;;;;;;3.17;1.70;;;23.50;1.00;;;;;;4878053;29;20040;-41
2023/07/17 09:45:27;;;;;;;5.47;1.50;;;23.50;1.00;;;;;;4878097;29;20413;-40
2023/07/17 09:47:54;;;;;;;4.18;1.30;;;23.50;1.00;;;;;;4878175;29;20037;-40
2023/07/17 09:50:23;;;;;;;2.67;1.33;;;23.50;1.00;;;;;;4866933;29;20500;-40
2023/07/17 09:52:52;;;;;;;3.42;1.40;;;23.50;1.00;;;;;;4859526;29;20038;-41
2023/07/17 09:55:26;;;;;;;4.07;2.28;;;23.50;1.00;;;;;;4863782;29;20057;-40
2023/07/17 09:57:57;;;;;;;4.75;1.38;;;23.50;1.00;;;;;;4878297;29;20048;-40
2023/07/17 10:00:26;;;;;;;4.97;1.80;;;23.50;1.00;;;;;;4878436;29;20041;-40
2023/07/17 10:03:08;;;;;;;4.63;1.73;;;23.50;1.00;;;;;;4877948;29;20041;-42
2023/07/17 10:05:37;;;;;;;3.08;1.38;;;23.50;1.00;;;;;;4878184;29;20489;-41
2023/07/17 10:08:06;;;;;;;5.38;1.65;;;23.50;1.00;;;;;;4878216;29;20468;-40
2023/07/17 10:10:34;;;;;;;6.60;2.05;;;23.50;1.00;;;;;;4878111;29;20045;-41
2023/07/17 10:13:01;;;;;;;3.65;1.88;;;23.50;1.00;;;;;;4861569;29;20562;-40
2023/07/17 10:15:29;;;;;;;4.97;1.67;;;23.50;1.00;;;;;;4859669;29;20038;-40
2023/07/17 10:17:57;;;;;;;8.25;1.73;;;23.50;1.00;;;;;;4859696;29;20513;-40
2023/07/17 10:20:26;;;;;;;5.22;1.75;;;23.50;1.00;;;;;;4871169;29;20422;-41
2023/07/17 10:22:53;;;;;;;3.83;1.40;;;23.50;1.00;;;;;;4877759;29;20048;-41
2023/07/17 10:25:19;;;;;;;3.92;1.70;;;23.50;1.00;;;;;;4876961;29;20398;-40
2023/07/17 10:27:53;;;;;;;6.35;1.67;;;23.50;1.00;;;;;;4878228;29;20041;-40
2023/07/17 10:30:23;;;;;;;4.65;1.52;;;23.50;1.00;;;;;;4877993;29;20076;-40
2023/07/17 10:33:06;;;;;;;3.03;1.45;;;23.50;1.00;;;;;;4879644;29;20108;-40
2023/07/17 10:35:53;;;;;;;3.55;1.65;;;23.50;1.00;;;;;;4869909;29;20065;-41
2023/07/17 10:38:29;;;;;;;4.80;1.50;;;23.50;1.00;;;;;;4866578;29;20045;-40
2023/07/17 10:41:03;;;;;;;3.35;1.55;;;23.50;1.00;;;;;;4881790;29;20044;-40
2023/07/17 10:43:31;;;;;;;5.10;1.65;;;23.50;1.00;;;;;;4881636;29;20863;-40
2023/07/17 10:45:59;;;;;;;5.30;1.77;;;23.50;1.00;;;;;;4881793;29;20055;-40
2023/07/17 10:48:33;;;;;;;5.07;1.98;;;23.50;1.00;;;;;;4881749;29;20437;-40
2023/07/17 10:51:00;;;;;;;4.07;1.63;;;23.50;1.00;;;;;;4881517;29;20069;-41
2023/07/17 10:53:27;;;;;;;5.40;1.88;;;23.50;1.00;;;;;;4881455;29;20052;-41
2023/07/17 10:55:54;;;;;;;4.68;1.42;;;23.50;1.00;;;;;;4881355;29;20045;-40
2023/07/17 10:58:21;;;;;;;5.20;2.03;;;23.50;1.00;;;;;;4881527;29;20069;-41
2023/07/17 11:00:48;;;;;;;3.58;1.52;;;23.50;1.00;;;;;;4881067;29;20037;-40
2023/07/17 11:03:24;;;;;;;5.75;1.83;;;23.50;1.00;;;;;;4881056;29;20073;-41
2023/07/17 11:05:54;;;;;;;3.88;2.38;;;23.50;1.00;;;;;;4881077;29;20110;-41
2023/07/17 11:08:24;;;;;;;5.47;2.00;;;23.50;1.00;;;;;;4881382;29;20207;-41
2023/07/17 11:10:51;;;;;;;5.35;1.50;;;23.50;1.00;;;;;;4880845;29;20074;-42
2023/07/17 11:13:18;;;;;;;3.53;1.50;;;23.50;1.00;;;;;;4870309;29;20049;-40
2023/07/17 11:15:45;;;;;;;2.63;1.38;;;23.50;1.00;;;;;;4876235;29;20513;-40
2023/07/17 11:18:11;;;;;;;3.70;1.65;;;23.50;1.00;;;;;;4881039;29;20047;-40
2023/07/17 11:20:39;;;;;;;4.18;1.60;;;23.50;1.00;;;;;;4880744;29;20640;-40
2023/07/17 11:23:11;;;;;;;3.53;2.05;;;23.50;1.00;;;;;;4880269;29;20032;-42
2023/07/17 11:25:39;;;;;;;3.75;2.03;;;23.50;1.00;;;;;;4880766;29;20041;-41
2023/07/17 11:28:06;;;;;;;4.00;2.15;;;23.50;1.00;;;;;;4880643;29;20037;-40
2023/07/17 11:30:33;;;;;;;3.72;1.58;;;23.50;1.00;;;;;;4880576;29;20116;-40
2023/07/17 11:33:05;;;;;;;6.60;1.60;;;23.50;1.00;;;;;;4880188;29;20056;-41
2023/07/17 11:35:38;;;;;;;4.18;1.52;;;23.50;1.00;;;;;;4880709;29;20115;-41
2023/07/17 11:38:12;;;;;;;4.47;1.35;;;23.50;1.00;;;;;;4880899;29;20084;-41
2023/07/17 11:40:59;;;;;;;5.03;1.38;;;23.50;1.00;;;;;;4880600;29;20511;-40
2023/07/17 11:43:32;;;;;;;4.13;1.70;;;23.50;1.00;;;;;;4879211;29;20393;-40
2023/07/17 11:46:04;;;;;;;3.47;1.40;;;23.50;1.00;;;;;;4880276;29;20135;-42
2023/07/17 11:48:33;;;;;;;4.43;1.58;;;23.50;1.00;;;;;;4866236;29;20036;-41
2023/07/17 11:51:04;;;;;;;7.07;1.63;;;23.50;1.00;;;;;;4880170;29;20037;-40
2023/07/17 11:53:34;;;;;;;5.40;1.80;;;23.50;1.00;;;;;;4865950;29;20037;-40
2023/07/17 11:56:01;;;;;;;6.93;2.38;;;23.50;1.00;;;;;;4880217;29;20081;-40
2023/07/17 11:58:34;;;;;;;4.55;1.38;;;23.50;1.00;;;;;;4880125;29;20037;-43
2023/07/17 12:01:03;;;;;;;4.63;1.80;;;23.50;1.00;;;;;;4880190;29;20047;-41
2023/07/17 12:03:30;;;;;;;3.08;2.03;;;23.50;1.00;;;;;;4879867;29;20055;-41
2023/07/17 12:05:57;;;;;;;3.38;1.52;;;23.50;1.00;;;;;;4878773;29;20045;-42
2023/07/17 12:08:24;;;;;;;2.42;1.25;;;23.50;1.00;;;;;;4879907;29;20095;-40
2023/07/17 12:10:51;;;;;;;2.30;1.50;;;23.50;1.00;;;;;;4880011;29;20116;-41
2023/07/17 12:13:18;;;;;;;3.42;1.75;;;23.50;1.00;;;;;;4879378;29;20128;-41
2023/07/17 12:15:45;;;;;;;4.90;1.38;;;23.50;1.00;;;;;;4879654;29;20040;-40
2023/07/17 12:18:11;;;;;;;5.63;1.25;;;23.50;1.00;;;;;;4879889;29;20476;-41
2023/07/17 12:20:38;;;;;;;4.53;1.90;;;23.50;1.00;;;;;;4879422;29;20059;-41
2023/07/17 12:23:05;;;;;;;3.80;1.65;;;23.50;1.00;;;;;;4879340;29;20064;-41
2023/07/17 12:25:32;;;;;;;6.07;1.55;;;23.50;1.00;;;;;;4879886;29;20052;-41
2023/07/17 12:28:00;;;;;;;5.00;2.25;;;23.50;1.00;;;;;;4879511;29;20093;-43
2023/07/17 12:30:29;;;;;;;4.38;2.50;;;23.50;1.00;;;;;;4879504;29;20462;-41
2023/07/17 12:32:57;;;;;;;7.25;1.90;;;23.50;1.00;;;;;;4879050;29;20037;-41
2023/07/17 12:35:27;;;;;;;5.22;1.52;;;23.50;1.00;;;;;;4879674;29;20113;-41
2023/07/17 12:37:55;;;;;;;3.33;1.90;;;23.50;1.00;;;;;;4879560;29;20157;-40
2023/07/17 12:40:23;;;;;;;2.60;1.38;;;23.50;1.00;;;;;;4879219;29;20055;-41
2023/07/17 12:42:50;;;;;;;8.68;3.10;;;23.40;1.00;;;;;;4878725;29;20053;-40
2023/07/17 12:45:17;;;;;;;3.80;1.60;;;23.40;1.00;;;;;;4879238;29;20101;-40
2023/07/17 12:47:44;;;;;;;6.43;1.55;;;23.40;1.00;;;;;;4879035;29;20056;-41
2023/07/17 12:50:12;;;;;;;3.60;1.58;;;23.40;1.00;;;;;;4863664;29;20494;-40
2023/07/17 12:52:39;;;;;;;4.93;1.65;;;23.40;1.00;;;;;;4878747;29;20073;-42
2023/07/17 12:55:06;;;;;;;5.88;1.98;;;23.40;1.00;;;;;;4878803;29;20048;-43
2023/07/17 12:57:34;;;;;;;2.25;1.23;;;23.40;1.00;;;;;;4879320;29;20037;-40
2023/07/17 13:00:07;;;;;;;3.42;1.65;;;23.40;1.00;;;;;;4878921;29;20037;-44
2023/07/17 13:02:34;;;;;;;7.13;2.55;;;23.50;1.00;;;;;;4879113;29;20052;-40